Time;durP1;ratioP1;P1;durP2;ratioP2;P2;SDS_P1;SDS_P2;PMS_P1;PMS_P2;Temp;Humidity;BMP_temperature;BMP_pressure;BME280_temperature;BME280_humidity;BME280_pressure;Samples;Min_cycle;Max_cycle;Signal;HPM_P1;HPM_P2
2023/12/11 00:01:43;;;;;;;8.82;2.40;;;;;;;3.18;81.38;92137.53;2061432;69;20527;-89
2023/12/11 00:04:11;;;;;;;6.85;2.10;;;;;;;3.61;80.42;92140.09;2062203;69;20149;-90
2023/12/11 00:06:39;;;;;;;3.83;1.30;;;;;;;3.59;80.43;92109.31;2062213;69;20181;-91
2023/12/11 00:09:07;;;;;;;2.80;1.13;;;;;;;3.72;79.32;92109.66;2061136;69;20141;-92
2023/12/11 00:11:33;;;;;;;1.92;0.80;;;;;;;3.95;77.79;92128.06;2062083;69;20657;-86
2023/12/11 00:14:00;;;;;;;1.35;0.77;;;;;;;3.95;78.29;92125.28;2062763;69;20721;-93
2023/12/11 00:16:25;;;;;;;2.80;1.25;;;;;;;3.74;78.66;92142.50;2060152;69;20614;-90
2023/12/11 00:18:51;;;;;;;3.95;1.70;;;;;;;3.36;80.77;92115.97;2063323;69;20188;-86
2023/12/11 00:21:18;;;;;;;19.70;3.15;;;;;;;3.69;80.28;92124.75;2063441;69;20148;-91
2023/12/11 00:23:44;;;;;;;8.38;2.70;;;;;;;3.86;79.29;92134.34;2063305;69;20137;-86
2023/12/11 00:26:10;;;;;;;3.72;1.75;;;;;;;3.85;79.21;92135.63;2064221;69;20600;-87
2023/12/11 00:28:36;;;;;;;4.20;1.42;;;;;;;4.00;78.59;92138.19;2065493;69;20148;-86
2023/12/11 00:31:07;;;;;;;3.17;1.30;;;;;;;4.01;78.69;92123.66;2066704;69;20152;-82
2023/12/11 00:33:33;;;;;;;2.10;1.15;;;;;;;4.07;78.67;92115.75;2066803;69;20153;-85
2023/12/11 00:35:59;;;;;;;1.65;1.00;;;;;;;3.90;78.79;92106.81;2065630;69;20154;-90
2023/12/11 00:38:25;;;;;;;2.25;0.90;;;;;;;3.94;79.04;92107.84;2063790;69;20253;-80
2023/12/11 00:40:51;;;;;;;1.10;0.80;;;;;;;4.08;78.75;92114.47;2066371;69;20149;-79
2023/12/11 00:43:18;;;;;;;0.90;0.60;;;;;;;4.21;78.24;92116.09;2065183;69;20142;-80
2023/12/11 00:45:44;;;;;;;2.33;0.50;;;;;;;4.12;78.86;92110.50;2064935;69;20211;-79
2023/12/11 00:48:10;;;;;;;2.30;1.20;;;;;;;3.56;80.68;92114.00;2063910;69;20161;-84
2023/12/11 00:50:35;;;;;;;3.58;1.30;;;;;;;3.95;79.90;92103.00;2062882;69;20606;-82
2023/12/11 00:53:02;;;;;;;3.20;1.00;;;;;;;4.14;78.76;92080.00;2065622;69;20228;-79
2023/12/11 00:55:27;;;;;;;1.77;1.00;;;;;;;4.23;78.42;92088.38;2064067;69;20232;-79
2023/12/11 00:57:54;;;;;;;2.08;0.88;;;;;;;4.17;78.98;92087.94;2064114;69;20278;-80
2023/12/11 01:00:21;;;;;;;1.48;0.90;;;;;;;4.07;79.70;92092.75;2063016;69;20171;-84
2023/12/11 01:02:46;;;;;;;3.92;0.95;;;;;;;4.12;79.62;92094.50;2062525;69;20210;-86
2023/12/11 01:05:12;;;;;;;2.13;1.20;;;;;;;3.96;80.08;92101.69;2062968;69;20156;-81
2023/12/11 01:07:38;;;;;;;2.72;1.17;;;;;;;4.01;80.51;92109.75;2063688;69;20523;-81
2023/12/11 01:10:04;;;;;;;2.15;1.02;;;;;;;4.05;79.89;92139.97;2064130;69;20188;-81
2023/12/11 01:12:30;;;;;;;2.70;1.10;;;;;;;4.06;80.03;92188.78;2062667;69;20160;-86
2023/12/11 01:14:55;;;;;;;1.80;1.40;;;;;;;3.59;81.34;92195.59;2061676;69;20146;-86
2023/12/11 01:17:21;;;;;;;7.03;2.15;;;;;;;3.66;82.00;92198.28;2061047;69;20161;-81
2023/12/11 01:19:47;;;;;;;7.45;2.75;;;;;;;3.59;81.90;92199.13;2062712;69;20136;-81
2023/12/11 01:22:12;;;;;;;5.63;2.70;;;;;;;3.93;81.17;92201.03;2064227;69;20184;-79
2023/12/11 01:24:38;;;;;;;4.25;2.00;;;;;;;4.07;80.12;92184.66;2061845;69;20141;-81
2023/12/11 01:27:04;;;;;;;4.32;1.80;;;;;;;4.12;79.98;92177.34;2058330;69;20165;-80
2023/12/11 01:29:30;;;;;;;5.43;1.60;;;;;;;4.13;79.79;92178.84;2061791;69;20150;-84
2023/12/11 01:31:55;;;;;;;2.30;1.13;;;;;;;4.13;80.34;92170.47;2061935;69;20173;-82
2023/12/11 01:34:21;;;;;;;1.55;0.75;;;;;;;4.21;79.67;92134.84;2061168;69;20268;-81
2023/12/11 01:36:46;;;;;;;5.35;2.25;;;;;;;3.55;81.83;92109.75;2061796;69;20205;-80
2023/12/11 01:39:13;;;;;;;5.00;2.40;;;;;;;3.18;84.38;92131.97;2062102;69;20161;-86
2023/12/11 01:41:41;;;;;;;3.80;1.98;;;;;;;3.74;83.09;92136.91;2063071;69;20505;-90
2023/12/11 01:44:07;;;;;;;4.97;2.28;;;;;;;3.88;81.96;92137.25;2062351;69;20137;-91
2023/12/11 01:46:37;;;;;;;4.57;1.83;;;;;;;3.98;81.35;92158.25;2061821;69;20157;-87
2023/12/11 01:49:02;;;;;;;5.63;2.08;;;;;;;3.75;82.28;92169.00;2061167;69;20150;-84
2023/12/11 01:51:29;;;;;;;5.47;2.00;;;;;;;3.75;82.75;92158.59;2061739;69;20202;-87
2023/12/11 01:53:55;;;;;;;4.15;1.60;;;;;;;3.81;82.18;92145.16;2058316;69;20622;-87
2023/12/11 01:56:21;;;;;;;3.15;1.52;;;;;;;3.89;82.56;92138.72;2060920;69;20153;-88
2023/12/11 01:58:48;;;;;;;2.58;1.25;;;;;;;3.92;83.10;92151.50;2061734;69;20602;-84
2023/12/11 02:01:14;;;;;;;2.00;1.20;;;;;;;4.13;81.79;92151.72;2062067;69;20146;-90
2023/12/11 02:03:40;;;;;;;0.95;0.80;;;;;;;4.02;82.09;92158.56;2061208;69;20188;-90
2023/12/11 02:06:06;;;;;;;3.72;1.30;;;;;;;4.06;82.85;92160.91;2061651;69;20164;-90
2023/12/11 02:08:33;;;;;;;4.00;1.80;;;;;;;4.16;82.02;92158.88;2061278;69;20152;-90
2023/12/11 02:10:59;;;;;;;2.38;1.20;;;;;;;4.22;81.04;92167.72;2061595;69;20179;-91
2023/12/11 02:13:24;;;;;;;4.10;1.38;;;;;;;4.28;81.02;92164.66;2062374;69;20583;-91
2023/12/11 02:15:51;;;;;;;1.50;1.10;;;;;;;4.22;81.15;92142.66;2061502;69;20161;-90
2023/12/11 02:18:18;;;;;;;1.90;1.10;;;;;;;4.29;81.06;92141.03;2061545;69;20137;-90
2023/12/11 02:20:45;;;;;;;2.03;1.27;;;;;;;4.29;80.97;92130.63;2058238;69;20181;-87
2023/12/11 02:23:16;;;;;;;2.00;0.80;;;;;;;4.31;81.00;92132.84;2061463;69;20141;-88
2023/12/11 02:25:45;;;;;;;2.13;1.48;;;;;;;3.76;83.72;92137.81;2061576;69;20202;-88
2023/12/11 02:28:11;;;;;;;3.28;1.40;;;;;;;4.03;82.86;92154.47;2061643;69;20172;-80
2023/12/11 02:30:50;;;;;;;2.88;1.58;;;;;;;3.68;83.99;92156.69;2061428;69;20154;-85
2023/12/11 02:33:15;;;;;;;4.72;1.40;;;;;;;4.03;83.25;92168.41;2062165;69;20153;-89
2023/12/11 02:35:43;;;;;;;3.95;1.30;;;;;;;4.20;82.17;92169.59;2061325;69;20642;-87
2023/12/11 02:38:09;;;;;;;2.78;1.33;;;;;;;4.24;81.98;92164.34;2062116;69;20219;-84
2023/12/11 02:40:35;;;;;;;2.15;1.10;;;;;;;4.33;81.36;92158.78;2058545;69;20157;-85
2023/12/11 02:43:01;;;;;;;2.00;0.70;;;;;;;4.28;81.91;92167.44;2063416;69;20176;-83
2023/12/11 02:45:26;;;;;;;3.78;0.80;;;;;;;3.87;83.91;92175.50;2064510;69;20147;-82
2023/12/11 02:47:56;;;;;;;1.90;0.95;;;;;;;4.07;83.46;92177.03;2064709;69;20293;-86
2023/12/11 02:50:22;;;;;;;3.03;1.20;;;;;;;4.03;83.27;92159.28;2065139;69;20149;-82
2023/12/11 02:52:48;;;;;;;2.33;1.30;;;;;;;4.24;82.29;92173.44;2064573;69;20148;-83
2023/12/11 02:55:13;;;;;;;3.40;1.50;;;;;;;4.14;82.47;92158.03;2064774;69;20156;-85
2023/12/11 02:57:39;;;;;;;4.93;2.38;;;;;;;3.78;84.93;92148.38;2064731;69;20524;-82
2023/12/11 03:00:06;;;;;;;3.05;1.55;;;;;;;3.99;84.36;92145.81;2064699;69;20646;-86
2023/12/11 03:02:31;;;;;;;1.73;1.20;;;;;;;4.04;83.93;92121.78;2064486;69;20635;-84
2023/12/11 03:04:58;;;;;;;2.22;1.08;;;;;;;3.76;84.30;92121.13;2064683;69;20148;-83
2023/12/11 03:07:25;;;;;;;3.75;1.63;;;;;;;3.98;84.52;92126.88;2064616;69;20156;-83
2023/12/11 03:09:51;;;;;;;3.95;1.60;;;;;;;4.08;83.52;92166.66;2064691;69;20180;-85
2023/12/11 03:12:17;;;;;;;3.85;1.30;;;;;;;4.19;82.86;92173.72;2064775;69;20161;-86
2023/12/11 03:14:43;;;;;;;4.18;1.52;;;;;;;3.62;84.60;92175.72;2064604;69;20215;-85
2023/12/11 03:17:09;;;;;;;6.10;2.05;;;;;;;3.39;86.85;92172.47;2064791;69;20235;-86
2023/12/11 03:19:36;;;;;;;3.28;1.80;;;;;;;3.79;86.04;92174.88;2064652;69;20141;-85
2023/12/11 03:22:01;;;;;;;4.55;1.58;;;;;;;3.90;84.65;92182.00;2064663;69;20196;-86
2023/12/11 03:24:28;;;;;;;3.20;1.40;;;;;;;3.63;86.44;92165.31;2064592;69;20148;-86
2023/12/11 03:26:54;;;;;;;3.25;1.30;;;;;;;3.98;85.01;92152.69;2064741;69;20149;-84
2023/12/11 03:29:19;;;;;;;1.73;1.00;;;;;;;4.09;84.01;92151.41;2064625;69;20173;-84
2023/12/11 03:31:45;;;;;;;2.25;0.68;;;;;;;4.16;84.18;92170.03;2064574;69;20161;-84
2023/12/11 03:34:10;;;;;;;4.03;1.63;;;;;;;3.66;85.09;92178.03;2064590;69;20183;-85
2023/12/11 03:36:36;;;;;;;6.68;2.50;;;;;;;3.72;86.61;92207.09;2064630;69;20601;-83
2023/12/11 03:39:03;;;;;;;6.07;2.40;;;;;;;4.05;84.89;92212.38;2064521;69;20236;-84
2023/12/11 03:41:28;;;;;;;3.95;1.77;;;;;;;4.15;84.14;92204.06;2064611;69;20152;-84
2023/12/11 03:43:54;;;;;;;3.58;1.50;;;;;;;4.21;83.68;92221.22;2064526;69;20149;-83
2023/12/11 03:46:20;;;;;;;3.72;2.22;;;;;;;3.87;85.17;92202.63;2064335;69;20507;-87
2023/12/11 03:48:46;;;;;;;3.13;1.75;;;;;;;3.98;85.92;92204.88;2064861;69;20141;-87
2023/12/11 03:51:11;;;;;;;2.95;1.52;;;;;;;4.17;84.98;92170.75;2064587;69;20194;-84
2023/12/11 03:53:37;;;;;;;2.42;1.00;;;;;;;4.29;83.77;92160.53;2064484;69;20612;-87
2023/12/11 03:56:03;;;;;;;2.85;1.05;;;;;;;4.05;85.25;92167.81;2064504;69;20152;-87
2023/12/11 03:58:29;;;;;;;1.48;0.85;;;;;;;4.15;84.66;92173.41;2064586;69;20276;-85
2023/12/11 04:00:55;;;;;;;2.22;1.35;;;;;;;3.79;87.09;92177.66;2062439;69;20153;-84
2023/12/11 04:03:21;;;;;;;10.20;4.57;;;;;;;3.39;88.89;92178.06;2060633;69;20704;-86
2023/12/11 04:05:47;;;;;;;5.38;2.25;;;;;;;3.12;92.10;92170.44;2064732;69;20140;-86
2023/12/11 04:08:14;;;;;;;1.60;1.50;;;;;;;3.51;92.68;92165.81;2064486;69;20141;-87
2023/12/11 04:10:40;;;;;;;2.22;1.30;;;;;;;3.84;89.97;92134.91;2063875;69;20219;-86
2023/12/11 04:13:05;;;;;;;2.75;1.50;;;;;;;3.99;88.26;92108.88;2064532;69;20165;-87
2023/12/11 04:15:33;;;;;;;3.42;1.85;;;;;;;3.73;89.37;92130.63;2064690;69;20678;-84
2023/12/11 04:17:59;;;;;;;2.50;1.60;;;;;;;4.07;87.85;92138.03;2064017;69;20599;-88
2023/12/11 04:20:24;;;;;;;3.60;1.40;;;;;;;4.19;86.74;92166.09;2064760;69;20156;-79
2023/12/11 04:22:50;;;;;;;3.78;1.30;;;;;;;3.75;88.67;92166.94;2063923;69;20148;-81
2023/12/11 04:25:16;;;;;;;3.70;1.35;;;;;;;4.04;87.83;92177.50;2064416;69;20159;-78
2023/12/11 04:27:41;;;;;;;4.80;1.63;;;;;;;4.22;86.37;92192.78;2064549;69;20167;-81
2023/12/11 04:30:08;;;;;;;5.05;1.92;;;;;;;4.10;86.84;92216.22;2064638;69;20141;-82
2023/12/11 04:32:33;;;;;;;3.03;1.50;;;;;;;4.23;86.10;92219.34;2063982;69;20582;-82
2023/12/11 04:34:59;;;;;;;3.17;1.10;;;;;;;4.32;85.01;92221.41;2064107;69;20145;-81
2023/12/11 04:37:25;;;;;;;3.22;1.45;;;;;;;4.29;85.43;92217.00;2063761;69;20148;-85
2023/12/11 04:39:52;;;;;;;2.85;1.63;;;;;;;4.30;85.23;92212.88;2064348;69;20188;-81
2023/12/11 04:42:17;;;;;;;3.05;1.83;;;;;;;4.28;85.53;92217.59;2063956;69;20160;-80
2023/12/11 04:44:44;;;;;;;2.72;2.00;;;;;;;4.27;85.61;92230.78;2064408;69;20230;-79
2023/12/11 04:47:10;;;;;;;2.85;1.90;;;;;;;4.33;84.82;92219.38;2063975;69;20164;-81
2023/12/11 04:49:36;;;;;;;5.45;1.90;;;;;;;4.38;84.93;92225.97;2064526;69;20240;-82
2023/12/11 04:52:02;;;;;;;4.22;1.65;;;;;;;4.29;85.23;92230.19;2064504;69;20167;-80
2023/12/11 04:54:27;;;;;;;10.38;5.85;;;;;;;4.06;87.11;92219.41;2064484;69;20615;-81
2023/12/11 04:56:53;;;;;;;8.80;4.60;;;;;;;4.07;87.24;92204.16;2064436;69;20157;-81
2023/12/11 04:59:19;;;;;;;6.72;3.30;;;;;;;4.26;85.98;92204.25;2064874;69;20156;-81
2023/12/11 05:01:44;;;;;;;6.57;3.55;;;;;;;4.22;85.68;92212.31;2064768;69;20172;-80
2023/12/11 05:04:10;;;;;;;5.90;3.13;;;;;;;4.35;85.07;92205.56;2064965;69;20590;-80
2023/12/11 05:06:36;;;;;;;7.10;4.20;;;;;;;4.18;86.38;92192.50;2064900;69;20516;-80
2023/12/11 05:09:01;;;;;;;13.35;5.80;;;;;;;4.10;86.38;92171.63;2064786;69;20157;-84
2023/12/11 05:11:27;;;;;;;3.78;1.60;;;;;;;4.14;87.40;92178.25;2065038;69;20521;-84
2023/12/11 05:13:53;;;;;;;2.00;0.90;;;;;;;4.30;87.13;92164.78;2064459;69;20254;-83
2023/12/11 05:16:18;;;;;;;4.25;2.30;;;;;;;4.06;87.84;92163.69;2065002;69;20137;-86
2023/12/11 05:18:44;;;;;;;3.33;2.10;;;;;;;4.32;86.56;92151.75;2065110;69;20244;-80
2023/12/11 05:21:12;;;;;;;4.18;2.45;;;;;;;4.24;86.05;92134.44;2066777;69;20626;-82
2023/12/11 05:23:38;;;;;;;4.72;2.75;;;;;;;4.13;87.39;92148.94;2066449;69;20152;-82
2023/12/11 05:26:04;;;;;;;4.97;2.42;;;;;;;4.17;86.79;92126.19;2067060;69;20184;-86
2023/12/11 05:28:30;;;;;;;4.35;1.20;;;;;;;4.42;86.26;92128.75;2065674;69;20188;-80
2023/12/11 05:30:55;;;;;;;6.72;3.25;;;;;;;4.23;86.80;92144.09;2065898;69;20148;-85
2023/12/11 05:33:21;;;;;;;9.32;2.88;;;;;;;4.44;85.82;92160.25;2067379;69;20191;-80
2023/12/11 05:35:47;;;;;;;6.85;4.20;;;;;;;4.48;85.14;92163.34;2067374;69;20195;-81
2023/12/11 05:38:12;;;;;;;9.65;4.25;;;;;;;4.50;84.86;92173.94;2068157;69;20181;-85
2023/12/11 05:40:40;;;;;;;5.55;3.10;;;;;;;4.32;85.39;92151.75;2065739;69;20140;-81
2023/12/11 05:43:05;;;;;;;5.20;3.50;;;;;;;3.94;87.01;92132.91;2066473;69;20153;-88
2023/12/11 05:45:32;;;;;;;11.02;4.85;;;;;;;3.78;89.25;92137.97;2068496;69;20602;-85
2023/12/11 05:47:59;;;;;;;7.90;4.68;;;;;;;4.08;88.10;92136.03;2068874;69;20168;-82
2023/12/11 05:50:25;;;;;;;7.43;4.18;;;;;;;4.10;87.17;92141.00;2068271;69;20129;-79
2023/12/11 05:52:50;;;;;;;9.55;4.88;;;;;;;3.92;88.57;92134.78;2065697;69;20148;-82
2023/12/11 05:55:17;;;;;;;6.18;3.60;;;;;;;4.02;88.25;92136.28;2068112;69;20140;-80
2023/12/11 05:57:42;;;;;;;6.20;3.50;;;;;;;4.21;87.40;92127.22;2069995;69;20184;-85
2023/12/11 06:00:09;;;;;;;3.58;2.03;;;;;;;4.26;86.26;92123.44;2070432;69;20145;-80
2023/12/11 06:02:36;;;;;;;1.50;1.08;;;;;;;4.20;87.35;92136.19;2066584;69;20578;-87
2023/12/11 06:05:02;;;;;;;7.18;4.30;;;;;;;3.47;90.47;92153.66;2064909;69;20260;-88
2023/12/11 06:07:28;;;;;;;6.03;3.00;;;;;;;3.60;90.68;92138.63;2064971;69;20173;-89
2023/12/11 06:09:53;;;;;;;7.57;4.05;;;;;;;3.83;89.61;92161.28;2064889;69;20143;-87
2023/12/11 06:12:19;;;;;;;31.92;11.25;;;;;;;3.66;90.00;92167.66;2064414;69;20200;-89
2023/12/11 06:14:46;;;;;;;13.90;5.75;;;;;;;3.78;89.40;92154.66;2064639;69;20292;-89
2023/12/11 06:17:12;;;;;;;32.08;15.32;;;;;;;3.27;92.54;92200.09;2064868;69;20180;-89
2023/12/11 06:19:43;;;;;;;19.33;9.48;;;;;;;3.68;91.11;92186.56;2067086;69;20145;-91
2023/12/11 06:22:09;;;;;;;5.60;3.67;;;;;;;3.96;90.19;92193.56;2066166;69;20235;-83
2023/12/11 06:24:38;;;;;;;8.23;5.78;;;;;;;3.91;89.25;92194.59;2065291;69;20144;-82
2023/12/11 06:27:04;;;;;;;8.73;5.13;;;;;;;3.82;89.87;92182.81;2064804;69;20153;-79
2023/12/11 06:29:29;;;;;;;7.80;4.40;;;;;;;3.81;90.81;92208.47;2064941;69;20631;-80
2023/12/11 06:31:55;;;;;;;9.18;5.55;;;;;;;3.87;91.41;92177.56;2064295;69;20141;-79
2023/12/11 06:34:21;;;;;;;7.70;4.65;;;;;;;4.10;89.54;92168.84;2064944;69;20157;-81
2023/12/11 06:36:47;;;;;;;14.70;8.15;;;;;;;3.86;90.60;92167.75;2064817;69;20137;-83
2023/12/11 06:39:13;;;;;;;14.02;8.10;;;;;;;4.13;88.95;92148.94;2064719;69;20167;-87
2023/12/11 06:41:39;;;;;;;9.40;5.13;;;;;;;4.08;88.12;92125.59;2064857;69;20141;-83
2023/12/11 06:44:05;;;;;;;5.57;3.90;;;;;;;4.18;88.35;92117.25;2064772;69;20520;-82
2023/12/11 06:46:31;;;;;;;6.95;4.20;;;;;;;4.27;88.06;92129.75;2064407;69;20552;-89
2023/12/11 06:48:58;;;;;;;6.35;3.60;;;;;;;4.37;86.95;92129.75;2068383;69;20163;-80
2023/12/11 06:51:25;;;;;;;90.07;44.85;;;;;;;4.39;86.43;92127.84;2068229;69;20520;-81
2023/12/11 06:53:58;;;;;;;59.67;30.75;;;;;;;4.40;86.13;92132.13;2067591;69;20168;-80
2023/12/11 06:56:25;;;;;;;6.47;3.13;;;;;;;4.17;86.92;92146.44;2067871;69;20149;-79
2023/12/11 06:58:51;;;;;;;5.97;3.30;;;;;;;4.36;86.43;92159.69;2068280;69;20594;-79
2023/12/11 07:01:17;;;;;;;5.78;2.95;;;;;;;4.28;86.71;92170.94;2068044;69;20175;-80
2023/12/11 07:03:45;;;;;;;7.15;3.88;;;;;;;4.24;86.59;92173.44;2068072;69;20599;-79
2023/12/11 07:06:10;;;;;;;6.88;3.50;;;;;;;4.30;86.69;92159.94;2068009;69;20143;-78
2023/12/11 07:08:37;;;;;;;4.90;3.58;;;;;;;4.29;87.36;92172.41;2068038;69;20160;-78
2023/12/11 07:11:03;;;;;;;10.32;6.13;;;;;;;4.04;88.57;92191.41;2067568;69;20225;-85
2023/12/11 07:13:29;;;;;;;12.50;7.35;;;;;;;3.94;88.48;92213.66;2068234;69;20236;-79
2023/12/11 07:15:54;;;;;;;18.13;10.50;;;;;;;3.50;90.66;92199.81;2067655;69;20137;-79
2023/12/11 07:18:21;;;;;;;15.70;10.35;;;;;;;3.69;90.92;92190.81;2067950;69;20184;-78
2023/12/11 07:20:48;;;;;;;14.45;9.60;;;;;;;4.13;88.67;92176.06;2067861;69;20140;-79
2023/12/11 07:23:13;;;;;;;16.88;8.50;;;;;;;4.15;87.56;92184.56;2062234;69;20146;-80
2023/12/11 07:25:39;;;;;;;13.43;7.50;;;;;;;4.25;87.15;92183.25;2061235;69;20142;-79
2023/12/11 07:28:05;;;;;;;9.75;6.35;;;;;;;4.29;86.68;92182.84;2061508;69;20518;-86
2023/12/11 07:30:31;;;;;;;9.48;6.60;;;;;;;4.08;87.92;92170.19;2061402;69;20151;-86
2023/12/11 07:32:58;;;;;;;12.70;7.35;;;;;;;3.89;89.11;92161.00;2060863;69;20149;-81
2023/12/11 07:35:24;;;;;;;12.27;8.25;;;;;;;4.04;89.42;92155.22;2061290;69;20141;-77
2023/12/11 07:37:52;;;;;;;19.38;11.05;;;;;;;3.71;89.76;92143.63;2061365;69;20225;-80
2023/12/11 07:40:18;;;;;;;26.30;15.50;;;;;;;3.69;91.37;92126.78;2060991;69;20157;-78
2023/12/11 07:42:43;;;;;;;22.52;13.70;;;;;;;3.92;90.76;92132.00;2061398;69;20605;-77
2023/12/11 07:45:11;;;;;;;18.40;10.82;;;;;;;4.19;88.79;92120.78;2060777;69;20556;-79
2023/12/11 07:47:37;;;;;;;7.13;4.68;;;;;;;3.97;90.20;92120.59;2061295;69;20145;-79
2023/12/11 07:50:03;;;;;;;7.75;5.25;;;;;;;3.84;92.20;92115.41;2061394;69;20148;-81
2023/12/11 07:52:32;;;;;;;6.75;4.53;;;;;;;3.96;92.67;92096.84;2060753;69;20595;-77
2023/12/11 07:54:59;;;;;;;5.13;3.38;;;;;;;4.23;91.53;92088.38;2062285;69;20168;-78
2023/12/11 07:57:26;;;;;;;5.28;2.80;;;;;;;4.28;90.47;92117.28;2064551;69;20219;-78
2023/12/11 07:59:52;;;;;;;5.07;2.55;;;;;;;4.47;89.26;92105.41;2064647;69;20157;-79
2023/12/11 08:02:18;;;;;;;35.30;16.42;;;;;;;4.41;89.49;92096.63;2063990;69;20148;-78
2023/12/11 08:04:44;;;;;;;19.35;11.68;;;;;;;4.47;89.40;92085.91;2064492;69;20167;-79
2023/12/11 08:07:10;;;;;;;5.35;2.03;;;;;;;4.62;88.54;92071.66;2061260;69;20224;-79
2023/12/11 08:09:39;;;;;;;3.50;2.40;;;;;;;4.51;88.69;92072.28;2064484;69;20211;-79
2023/12/11 08:12:06;;;;;;;10.55;6.00;;;;;;;4.16;89.58;92061.38;2064574;69;20152;-89
2023/12/11 08:14:32;;;;;;;9.40;5.80;;;;;;;4.40;89.05;92064.47;2064168;69;20172;-87
2023/12/11 08:16:58;;;;;;;7.15;4.90;;;;;;;4.66;87.99;92082.38;2064648;69;20153;-84
2023/12/11 08:19:24;;;;;;;9.07;5.75;;;;;;;4.64;87.92;92077.41;2064544;69;20275;-79
2023/12/11 08:21:52;;;;;;;13.10;7.88;;;;;;;4.42;88.73;92086.94;2064632;69;20148;-79
2023/12/11 08:24:18;;;;;;;13.82;8.25;;;;;;;4.70;87.79;92086.19;2064431;69;20139;-85
2023/12/11 08:26:46;;;;;;;16.58;8.15;;;;;;;4.80;86.94;92061.81;2065255;69;20098;-79
2023/12/11 08:29:12;;;;;;;20.23;12.07;;;;;;;4.80;86.61;92063.88;2064303;69;20644;-81
2023/12/11 08:31:37;;;;;;;18.50;10.52;;;;;;;4.80;86.21;92056.25;2064569;69;20187;-79
2023/12/11 08:34:03;;;;;;;17.42;9.90;;;;;;;4.65;86.30;92050.25;2065114;69;20160;-81
2023/12/11 08:36:29;;;;;;;14.43;9.57;;;;;;;4.74;86.27;92055.81;2065162;69;20236;-82
2023/12/11 08:38:55;;;;;;;16.17;8.85;;;;;;;4.78;86.09;92060.94;2064816;69;20200;-79
2023/12/11 08:41:20;;;;;;;14.90;8.15;;;;;;;4.81;85.69;92046.56;2065165;69;20607;-79
2023/12/11 08:43:47;;;;;;;11.45;7.97;;;;;;;4.81;85.82;92060.50;2065014;69;20215;-85
2023/12/11 08:46:13;;;;;;;10.65;6.90;;;;;;;4.48;86.47;92085.31;2064570;69;20140;-81
2023/12/11 08:48:39;;;;;;;14.73;8.95;;;;;;;4.63;86.62;92094.69;2064483;69;20167;-84
2023/12/11 08:51:05;;;;;;;16.35;8.68;;;;;;;4.45;87.42;92110.84;2065019;69;20179;-83
2023/12/11 08:53:31;;;;;;;15.93;10.70;;;;;;;4.40;88.37;92117.44;2064179;69;20149;-81
2023/12/11 08:55:57;;;;;;;15.98;9.80;;;;;;;4.41;87.94;92125.22;2065072;69;20152;-79
2023/12/11 08:58:24;;;;;;;15.63;8.27;;;;;;;4.54;87.71;92129.63;2065144;69;20133;-81
2023/12/11 09:00:50;;;;;;;13.50;9.07;;;;;;;4.45;87.50;92108.81;2065057;69;20141;-83
2023/12/11 09:03:15;;;;;;;21.70;12.05;;;;;;;4.21;88.42;92102.16;2064953;69;20482;-84
2023/12/11 09:05:41;;;;;;;16.48;9.65;;;;;;;4.54;87.61;92108.06;2065051;69;20149;-84
2023/12/11 09:08:09;;;;;;;14.40;9.57;;;;;;;4.62;86.83;92096.75;2064510;69;20597;-86
2023/12/11 09:10:40;;;;;;;13.35;8.73;;;;;;;4.56;86.77;92099.09;2064966;69;20513;-83
2023/12/11 09:13:06;;;;;;;16.92;9.63;;;;;;;4.25;87.75;92116.38;2065119;69;20612;-82
2023/12/11 09:15:32;;;;;;;15.77;10.52;;;;;;;4.54;87.77;92122.00;2064977;69;20177;-85
2023/12/11 09:17:57;;;;;;;20.58;11.32;;;;;;;4.65;86.72;92131.84;2065103;69;20210;-81
2023/12/11 09:20:24;;;;;;;26.35;15.82;;;;;;;4.69;86.02;92117.47;2064970;69;20184;-83
2023/12/11 09:22:50;;;;;;;34.40;18.33;;;;;;;4.32;87.67;92123.16;2064837;69;20222;-80
2023/12/11 09:25:15;;;;;;;22.42;13.55;;;;;;;4.57;87.40;92129.19;2065008;69;20153;-85
2023/12/11 09:27:41;;;;;;;16.10;9.75;;;;;;;4.69;86.15;92128.63;2065439;69;20155;-81
2023/12/11 09:30:09;;;;;;;16.95;10.50;;;;;;;4.73;86.11;92134.50;2065675;69;20136;-85
2023/12/11 09:32:35;;;;;;;17.90;10.63;;;;;;;4.80;85.63;92147.53;2065624;69;20149;-86
2023/12/11 09:35:01;;;;;;;26.83;14.60;;;;;;;4.45;87.23;92147.09;2065534;69;20149;-85
2023/12/11 09:37:27;;;;;;;23.75;14.48;;;;;;;4.70;86.76;92144.00;2064781;69;20222;-82
2023/12/11 09:39:52;;;;;;;25.52;15.00;;;;;;;4.67;86.55;92137.53;2064693;69;20196;-84
2023/12/11 09:42:18;;;;;;;19.70;13.50;;;;;;;4.56;87.35;92146.50;2064969;69;20152;-81
2023/12/11 09:44:45;;;;;;;21.67;12.98;;;;;;;4.80;86.14;92133.59;2065100;69;20164;-88
2023/12/11 09:47:16;;;;;;;22.30;13.00;;;;;;;4.82;85.75;92111.44;2065049;69;20207;-89
2023/12/11 09:49:43;;;;;;;18.42;11.15;;;;;;;4.87;85.46;92124.34;2061692;69;20168;-88
2023/12/11 09:52:10;;;;;;;13.82;8.57;;;;;;;4.80;85.19;92137.09;2065048;69;20157;-87
2023/12/11 09:54:35;;;;;;;12.43;8.23;;;;;;;4.88;85.35;92152.97;2064386;69;20145;-90
2023/12/11 09:57:02;;;;;;;30.13;18.08;;;;;;;4.36;86.44;92156.16;2064757;69;20153;-88
2023/12/11 09:59:30;;;;;;;28.80;19.08;;;;;;;4.47;87.89;92150.00;2065784;69;20517;-92
2023/12/11 10:01:57;;;;;;;21.45;14.55;;;;;;;4.79;86.33;92152.38;2065580;69;20157;-85
2023/12/11 10:04:22;;;;;;;21.55;14.35;;;;;;;4.83;85.95;92135.94;2065284;69;20171;-85
2023/12/11 10:06:52;;;;;;;20.13;13.20;;;;;;;4.89;85.39;92123.75;2064435;69;20133;-85
2023/12/11 10:09:35;;;;;;;15.65;10.00;;;;;;;4.96;85.22;92101.31;2065155;69;20160;-88
2023/12/11 10:12:02;;;;;;;;;;;;;;;4.98;85.27;92097.91;2070206;69;20581;-86
2023/12/11 10:14:31;;;;;;;6.90;4.10;;;;;;;5.02;84.95;92104.50;2070154;69;20244;-85
2023/12/11 10:16:57;;;;;;;13.82;7.88;;;;;;;5.05;85.35;92105.41;2068735;69;20184;-81
2023/12/11 10:19:31;;;;;;;12.82;7.25;;;;;;;4.94;84.69;92112.28;2066853;69;20149;-92
2023/12/11 10:21:57;;;;;;;25.00;14.38;;;;;;;4.94;85.17;92133.88;2067705;69;20141;-87
2023/12/11 10:24:23;;;;;;;25.75;15.63;;;;;;;4.81;85.89;92140.63;2073020;69;20152;-84
2023/12/11 10:26:57;;;;;;;22.45;13.15;;;;;;;4.79;86.48;92126.56;2073266;69;20109;-87
2023/12/11 10:29:27;;;;;;;26.65;14.90;;;;;;;4.79;86.00;92113.34;2069198;69;20171;-79
2023/12/11 10:32:00;;;;;;;28.23;16.98;;;;;;;4.73;87.33;92101.75;2065135;69;20722;-80
2023/12/11 10:34:45;;;;;;;29.67;19.42;;;;;;;4.89;86.45;92096.59;2065828;69;20149;-78
2023/12/11 10:37:15;;;;;;;34.67;20.58;;;;;;;4.85;86.14;92085.16;2065764;69;20129;-80
2023/12/11 10:39:56;;;;;;;32.40;20.00;;;;;;;5.01;85.72;92093.94;2065148;69;20172;-79
2023/12/11 10:42:23;;;;;;;30.60;17.67;;;;;;;5.07;85.13;92092.31;2064892;69;20262;-80
2023/12/11 10:44:50;;;;;;;18.25;12.27;;;;;;;4.90;85.33;92081.31;2065227;69;20156;-80
2023/12/11 10:47:16;;;;;;;27.05;15.32;;;;;;;4.93;85.90;92090.56;2065757;69;20149;-79
2023/12/11 10:49:42;;;;;;;20.83;12.15;;;;;;;4.89;85.80;92087.50;2065076;69;20621;-80
2023/12/11 10:52:08;;;;;;;24.73;13.40;;;;;;;4.97;85.56;92088.81;2065612;69;20160;-82
2023/12/11 10:54:38;;;;;;;18.60;11.38;;;;;;;4.99;85.69;92091.72;2064869;69;20165;-81
2023/12/11 10:57:11;;;;;;;14.63;9.05;;;;;;;5.01;85.55;92096.75;2064763;69;20171;-81
2023/12/11 10:59:38;;;;;;;11.48;7.47;;;;;;;4.98;86.00;92072.81;2064826;69;20225;-81
2023/12/11 11:02:06;;;;;;;19.95;11.30;;;;;;;4.68;86.72;92058.19;2064730;69;20145;-81
2023/12/11 11:04:39;;;;;;;25.73;14.80;;;;;;;4.71;87.43;92061.81;2064684;69;20244;-79
2023/12/11 11:07:29;;;;;;;21.60;12.50;;;;;;;4.95;86.33;92065.59;2064770;69;20222;-80
2023/12/11 11:10:12;;;;;;;23.35;14.50;;;;;;;4.90;86.51;92072.97;2063983;69;20243;-83
2023/12/11 11:12:43;;;;;;;23.40;15.63;;;;;;;4.96;85.91;92076.19;2064168;69;20236;-82
2023/12/11 11:15:10;;;;;;;19.13;12.10;;;;;;;4.98;85.88;92079.13;2064888;69;20600;-80
2023/12/11 11:18:01;;;;;;;18.90;10.93;;;;;;;4.92;85.65;92089.84;2064709;69;20133;-83
2023/12/11 11:20:31;;;;;;;22.55;12.00;;;;;;;4.94;85.93;92087.19;2064714;69;20153;-80
2023/12/11 11:23:19;;;;;;;20.45;11.65;;;;;;;5.01;85.49;92103.06;2064502;69;20170;-80
2023/12/11 11:25:53;;;;;;;19.55;10.98;;;;;;;4.94;85.75;92120.66;2062754;69;20226;-82
2023/12/11 11:28:35;;;;;;;23.83;13.85;;;;;;;5.02;85.32;92120.53;2064673;69;20144;-81
2023/12/11 11:31:00;;;;;;;33.10;19.03;;;;;;;4.99;85.58;92097.31;2064130;69;20149;-83
2023/12/11 11:33:49;;;;;;;24.42;16.58;;;;;;;4.95;85.69;92090.72;2064048;69;20202;-82
2023/12/11 11:36:17;;;;;;;33.45;21.10;;;;;;;4.95;85.58;92099.09;2064760;69;20269;-81